sensor_id;sensor_type;location;lat;lon;timestamp;P1;durP1;ratioP1;P2;durP2;ratioP2
5054;SDS011;13829;48.990;8.346;2023-08-20T00:01:11;13.43;;;11.10;;
5054;SDS011;13829;48.990;8.346;2023-08-20T00:03:45;12.10;;;10.70;;
5054;SDS011;13829;48.990;8.346;2023-08-20T00:06:14;11.43;;;10.23;;
5054;SDS011;13829;48.990;8.346;2023-08-20T00:08:41;12.80;;;10.38;;
5054;SDS011;13829;48.990;8.346;2023-08-20T00:11:08;19.58;;;10.85;;
5054;SDS011;13829;48.990;8.346;2023-08-20T00:13:35;13.20;;;11.80;;
5054;SDS011;13829;48.990;8.346;2023-08-20T00:16:03;17.33;;;11.73;;
5054;SDS011;13829;48.990;8.346;2023-08-20T00:18:32;11.77;;;10.57;;
5054;SDS011;13829;48.990;8.346;2023-08-20T00:21:00;12.68;;;11.38;;
5054;SDS011;13829;48.990;8.346;2023-08-20T00:23:28;12.35;;;11.10;;
5054;SDS011;13829;48.990;8.346;2023-08-20T00:25:55;14.25;;;11.48;;
5054;SDS011;13829;48.990;8.346;2023-08-20T00:28:23;12.15;;;10.73;;
5054;SDS011;13829;48.990;8.346;2023-08-20T00:30:50;13.43;;;11.48;;
5054;SDS011;13829;48.990;8.346;2023-08-20T00:33:17;13.60;;;10.73;;
5054;SDS011;13829;48.990;8.346;2023-08-20T00:35:45;12.18;;;10.98;;
5054;SDS011;13829;48.990;8.346;2023-08-20T00:38:12;12.48;;;11.18;;
5054;SDS011;13829;48.990;8.346;2023-08-20T00:40:39;15.77;;;11.45;;
5054;SDS011;13829;48.990;8.346;2023-08-20T00:43:06;12.13;;;11.00;;
5054;SDS011;13829;48.990;8.346;2023-08-20T00:45:33;13.80;;;11.52;;
5054;SDS011;13829;48.990;8.346;2023-08-20T00:48:01;13.77;;;11.02;;
5054;SDS011;13829;48.990;8.346;2023-08-20T00:50:30;22.60;;;11.48;;
5054;SDS011;13829;48.990;8.346;2023-08-20T00:52:58;12.10;;;10.95;;
5054;SDS011;13829;48.990;8.346;2023-08-20T00:55:25;14.15;;;10.70;;
5054;SDS011;13829;48.990;8.346;2023-08-20T00:57:53;13.25;;;11.40;;
5054;SDS011;13829;48.990;8.346;2023-08-20T01:00:20;15.07;;;11.00;;
5054;SDS011;13829;48.990;8.346;2023-08-20T01:02:50;13.23;;;11.70;;
5054;SDS011;13829;48.990;8.346;2023-08-20T01:05:17;17.05;;;11.18;;
5054;SDS011;13829;48.990;8.346;2023-08-20T01:07:50;16.25;;;11.35;;
5054;SDS011;13829;48.990;8.346;2023-08-20T01:10:42;13.85;;;11.10;;
5054;SDS011;13829;48.990;8.346;2023-08-20T01:13:19;15.50;;;10.60;;
5054;SDS011;13829;48.990;8.346;2023-08-20T01:15:47;19.70;;;11.70;;
5054;SDS011;13829;48.990;8.346;2023-08-20T01:18:14;12.32;;;11.23;;
5054;SDS011;13829;48.990;8.346;2023-08-20T01:20:41;13.02;;;11.68;;
5054;SDS011;13829;48.990;8.346;2023-08-20T01:23:28;12.20;;;11.10;;
5054;SDS011;13829;48.990;8.346;2023-08-20T01:26:25;13.70;;;12.15;;
5054;SDS011;13829;48.990;8.346;2023-08-20T01:29:15;14.00;;;11.43;;
5054;SDS011;13829;48.990;8.346;2023-08-20T01:31:43;12.98;;;11.68;;
5054;SDS011;13829;48.990;8.346;2023-08-20T01:34:11;12.52;;;11.18;;
5054;SDS011;13829;48.990;8.346;2023-08-20T01:36:39;17.10;;;11.15;;
5054;SDS011;13829;48.990;8.346;2023-08-20T01:39:06;15.82;;;10.70;;
5054;SDS011;13829;48.990;8.346;2023-08-20T01:41:33;14.18;;;11.30;;
5054;SDS011;13829;48.990;8.346;2023-08-20T01:44:00;12.07;;;10.98;;
5054;SDS011;13829;48.990;8.346;2023-08-20T01:46:28;12.43;;;11.23;;
5054;SDS011;13829;48.990;8.346;2023-08-20T01:48:55;14.93;;;10.93;;
5054;SDS011;13829;48.990;8.346;2023-08-20T01:51:23;15.13;;;10.80;;
5054;SDS011;13829;48.990;8.346;2023-08-20T01:53:50;12.00;;;10.80;;
5054;SDS011;13829;48.990;8.346;2023-08-20T01:56:17;13.07;;;10.85;;
5054;SDS011;13829;48.990;8.346;2023-08-20T01:58:44;12.73;;;11.20;;
5054;SDS011;13829;48.990;8.346;2023-08-20T02:01:11;12.30;;;10.93;;
5054;SDS011;13829;48.990;8.346;2023-08-20T02:03:40;16.65;;;11.57;;
5054;SDS011;13829;48.990;8.346;2023-08-20T02:06:06;18.92;;;12.57;;
5054;SDS011;13829;48.990;8.346;2023-08-20T02:08:33;16.65;;;11.52;;
5054;SDS011;13829;48.990;8.346;2023-08-20T02:11:01;14.23;;;11.82;;
5054;SDS011;13829;48.990;8.346;2023-08-20T02:13:28;17.17;;;12.15;;
5054;SDS011;13829;48.990;8.346;2023-08-20T02:15:59;12.30;;;11.10;;
5054;SDS011;13829;48.990;8.346;2023-08-20T02:18:27;13.93;;;11.52;;
5054;SDS011;13829;48.990;8.346;2023-08-20T02:20:56;14.70;;;11.65;;
5054;SDS011;13829;48.990;8.346;2023-08-20T02:23:23;13.23;;;11.63;;
5054;SDS011;13829;48.990;8.346;2023-08-20T02:25:50;13.88;;;11.30;;
5054;SDS011;13829;48.990;8.346;2023-08-20T02:28:17;11.93;;;10.73;;
5054;SDS011;13829;48.990;8.346;2023-08-20T02:30:45;20.77;;;12.35;;
5054;SDS011;13829;48.990;8.346;2023-08-20T02:33:13;13.40;;;11.80;;
5054;SDS011;13829;48.990;8.346;2023-08-20T02:35:40;16.45;;;11.00;;
5054;SDS011;13829;48.990;8.346;2023-08-20T02:38:08;13.57;;;11.35;;
5054;SDS011;13829;48.990;8.346;2023-08-20T02:40:39;11.98;;;10.50;;
5054;SDS011;13829;48.990;8.346;2023-08-20T02:43:07;12.88;;;10.57;;
5054;SDS011;13829;48.990;8.346;2023-08-20T02:45:39;11.57;;;10.48;;
5054;SDS011;13829;48.990;8.346;2023-08-20T02:48:07;13.13;;;11.10;;
5054;SDS011;13829;48.990;8.346;2023-08-20T02:50:35;14.98;;;10.48;;
5054;SDS011;13829;48.990;8.346;2023-08-20T02:53:02;13.63;;;11.07;;
5054;SDS011;13829;48.990;8.346;2023-08-20T02:55:31;13.32;;;10.27;;
5054;SDS011;13829;48.990;8.346;2023-08-20T02:57:58;12.65;;;11.38;;
5054;SDS011;13829;48.990;8.346;2023-08-20T03:00:26;12.00;;;10.57;;
5054;SDS011;13829;48.990;8.346;2023-08-20T03:02:54;11.95;;;10.80;;
5054;SDS011;13829;48.990;8.346;2023-08-20T03:05:21;20.35;;;11.63;;
5054;SDS011;13829;48.990;8.346;2023-08-20T03:07:48;19.15;;;11.93;;
5054;SDS011;13829;48.990;8.346;2023-08-20T03:10:15;14.50;;;11.40;;
5054;SDS011;13829;48.990;8.346;2023-08-20T03:12:44;17.00;;;10.55;;
5054;SDS011;13829;48.990;8.346;2023-08-20T03:15:11;17.75;;;11.52;;
5054;SDS011;13829;48.990;8.346;2023-08-20T03:17:38;16.63;;;11.30;;
5054;SDS011;13829;48.990;8.346;2023-08-20T03:20:05;14.43;;;10.20;;
5054;SDS011;13829;48.990;8.346;2023-08-20T03:22:35;18.58;;;11.60;;
5054;SDS011;13829;48.990;8.346;2023-08-20T03:25:04;12.45;;;11.00;;
5054;SDS011;13829;48.990;8.346;2023-08-20T03:27:32;11.55;;;10.38;;
5054;SDS011;13829;48.990;8.346;2023-08-20T03:30:00;12.23;;;10.82;;
5054;SDS011;13829;48.990;8.346;2023-08-20T03:32:28;12.65;;;10.30;;
5054;SDS011;13829;48.990;8.346;2023-08-20T03:34:55;15.00;;;11.13;;
5054;SDS011;13829;48.990;8.346;2023-08-20T03:37:24;16.27;;;10.55;;
5054;SDS011;13829;48.990;8.346;2023-08-20T03:39:51;11.68;;;10.45;;
5054;SDS011;13829;48.990;8.346;2023-08-20T03:42:18;10.95;;;9.85;;
5054;SDS011;13829;48.990;8.346;2023-08-20T03:44:45;13.82;;;9.48;;
5054;SDS011;13829;48.990;8.346;2023-08-20T03:47:13;12.98;;;10.77;;
5054;SDS011;13829;48.990;8.346;2023-08-20T03:49:40;11.88;;;10.50;;
5054;SDS011;13829;48.990;8.346;2023-08-20T03:52:07;11.75;;;10.38;;
5054;SDS011;13829;48.990;8.346;2023-08-20T03:54:35;15.10;;;11.43;;
5054;SDS011;13829;48.990;8.346;2023-08-20T03:57:01;15.55;;;10.48;;
5054;SDS011;13829;48.990;8.346;2023-08-20T03:59:29;13.18;;;11.52;;
5054;SDS011;13829;48.990;8.346;2023-08-20T04:01:57;12.18;;;10.98;;
5054;SDS011;13829;48.990;8.346;2023-08-20T04:04:25;12.23;;;11.13;;
5054;SDS011;13829;48.990;8.346;2023-08-20T04:06:53;12.50;;;10.98;;
5054;SDS011;13829;48.990;8.346;2023-08-20T04:09:20;12.43;;;11.00;;
5054;SDS011;13829;48.990;8.346;2023-08-20T04:11:47;14.88;;;11.93;;
5054;SDS011;13829;48.990;8.346;2023-08-20T04:14:13;18.23;;;11.40;;
5054;SDS011;13829;48.990;8.346;2023-08-20T04:16:40;13.73;;;11.73;;
5054;SDS011;13829;48.990;8.346;2023-08-20T04:19:08;17.67;;;12.52;;
5054;SDS011;13829;48.990;8.346;2023-08-20T04:21:36;13.05;;;11.18;;
5054;SDS011;13829;48.990;8.346;2023-08-20T04:24:03;12.15;;;10.98;;
5054;SDS011;13829;48.990;8.346;2023-08-20T04:26:31;11.90;;;10.40;;
5054;SDS011;13829;48.990;8.346;2023-08-20T04:28:57;15.07;;;11.20;;
5054;SDS011;13829;48.990;8.346;2023-08-20T04:31:24;13.15;;;10.73;;
5054;SDS011;13829;48.990;8.346;2023-08-20T04:33:51;20.73;;;11.60;;
5054;SDS011;13829;48.990;8.346;2023-08-20T04:36:18;38.33;;;13.10;;
5054;SDS011;13829;48.990;8.346;2023-08-20T04:38:46;14.63;;;11.50;;
5054;SDS011;13829;48.990;8.346;2023-08-20T04:41:13;13.57;;;11.85;;
5054;SDS011;13829;48.990;8.346;2023-08-20T04:43:40;13.15;;;11.15;;
5054;SDS011;13829;48.990;8.346;2023-08-20T04:46:07;15.05;;;11.25;;
5054;SDS011;13829;48.990;8.346;2023-08-20T04:48:34;13.30;;;10.70;;
5054;SDS011;13829;48.990;8.346;2023-08-20T04:51:01;17.17;;;10.73;;
5054;SDS011;13829;48.990;8.346;2023-08-20T04:53:28;21.95;;;12.95;;
5054;SDS011;13829;48.990;8.346;2023-08-20T04:55:57;43.00;;;13.20;;
5054;SDS011;13829;48.990;8.346;2023-08-20T04:58:24;38.85;;;13.13;;
5054;SDS011;13829;48.990;8.346;2023-08-20T05:00:51;25.40;;;11.98;;
5054;SDS011;13829;48.990;8.346;2023-08-20T05:03:18;16.02;;;11.93;;
5054;SDS011;13829;48.990;8.346;2023-08-20T05:05:48;14.48;;;11.05;;
5054;SDS011;13829;48.990;8.346;2023-08-20T05:08:15;11.60;;;10.40;;
5054;SDS011;13829;48.990;8.346;2023-08-20T05:10:42;13.80;;;12.27;;
5054;SDS011;13829;48.990;8.346;2023-08-20T05:13:11;19.05;;;13.00;;
5054;SDS011;13829;48.990;8.346;2023-08-20T05:15:38;18.05;;;12.38;;
5054;SDS011;13829;48.990;8.346;2023-08-20T05:18:05;13.57;;;11.82;;
5054;SDS011;13829;48.990;8.346;2023-08-20T05:20:32;13.63;;;10.88;;
5054;SDS011;13829;48.990;8.346;2023-08-20T05:22:59;11.95;;;10.75;;
5054;SDS011;13829;48.990;8.346;2023-08-20T05:25:26;11.63;;;10.43;;
5054;SDS011;13829;48.990;8.346;2023-08-20T05:27:53;12.23;;;11.02;;
5054;SDS011;13829;48.990;8.346;2023-08-20T05:30:21;13.43;;;12.02;;
5054;SDS011;13829;48.990;8.346;2023-08-20T05:32:48;13.52;;;12.30;;
5054;SDS011;13829;48.990;8.346;2023-08-20T05:35:15;12.82;;;11.63;;
5054;SDS011;13829;48.990;8.346;2023-08-20T05:37:42;12.38;;;11.27;;
5054;SDS011;13829;48.990;8.346;2023-08-20T05:40:09;11.63;;;10.52;;
5054;SDS011;13829;48.990;8.346;2023-08-20T05:42:36;14.05;;;12.63;;
5054;SDS011;13829;48.990;8.346;2023-08-20T05:45:04;14.05;;;12.45;;
5054;SDS011;13829;48.990;8.346;2023-08-20T05:47:33;15.10;;;12.73;;
5054;SDS011;13829;48.990;8.346;2023-08-20T05:49:59;13.27;;;11.88;;
5054;SDS011;13829;48.990;8.346;2023-08-20T05:52:26;12.23;;;11.00;;
5054;SDS011;13829;48.990;8.346;2023-08-20T05:54:53;11.10;;;9.98;;
5054;SDS011;13829;48.990;8.346;2023-08-20T05:57:20;11.05;;;10.05;;
5054;SDS011;13829;48.990;8.346;2023-08-20T05:59:47;12.68;;;11.38;;
5054;SDS011;13829;48.990;8.346;2023-08-20T06:02:15;11.63;;;10.52;;
5054;SDS011;13829;48.990;8.346;2023-08-20T06:04:44;12.15;;;10.80;;
5054;SDS011;13829;48.990;8.346;2023-08-20T06:07:11;13.60;;;11.43;;
5054;SDS011;13829;48.990;8.346;2023-08-20T06:09:38;12.27;;;11.07;;
5054;SDS011;13829;48.990;8.346;2023-08-20T06:12:05;13.43;;;12.00;;
5054;SDS011;13829;48.990;8.346;2023-08-20T06:14:33;20.98;;;10.80;;
5054;SDS011;13829;48.990;8.346;2023-08-20T06:17:00;13.02;;;9.88;;
5054;SDS011;13829;48.990;8.346;2023-08-20T06:19:27;14.68;;;9.85;;
5054;SDS011;13829;48.990;8.346;2023-08-20T06:21:56;11.95;;;9.95;;
5054;SDS011;13829;48.990;8.346;2023-08-20T06:24:23;14.05;;;10.40;;
5054;SDS011;13829;48.990;8.346;2023-08-20T06:26:50;12.57;;;9.90;;
5054;SDS011;13829;48.990;8.346;2023-08-20T06:29:18;12.82;;;10.43;;
5054;SDS011;13829;48.990;8.346;2023-08-20T06:31:46;11.27;;;10.27;;
5054;SDS011;13829;48.990;8.346;2023-08-20T06:34:14;14.43;;;9.73;;
5054;SDS011;13829;48.990;8.346;2023-08-20T06:36:41;9.75;;;8.85;;
5054;SDS011;13829;48.990;8.346;2023-08-20T06:39:09;12.77;;;9.57;;
5054;SDS011;13829;48.990;8.346;2023-08-20T06:41:36;10.68;;;9.15;;
5054;SDS011;13829;48.990;8.346;2023-08-20T06:44:03;13.73;;;9.50;;
5054;SDS011;13829;48.990;8.346;2023-08-20T06:46:30;16.23;;;8.95;;
5054;SDS011;13829;48.990;8.346;2023-08-20T06:48:58;15.32;;;9.48;;
5054;SDS011;13829;48.990;8.346;2023-08-20T06:51:25;10.75;;;9.50;;
5054;SDS011;13829;48.990;8.346;2023-08-20T06:53:53;11.20;;;9.88;;
5054;SDS011;13829;48.990;8.346;2023-08-20T06:56:22;10.20;;;8.38;;
5054;SDS011;13829;48.990;8.346;2023-08-20T06:58:50;13.13;;;9.23;;
5054;SDS011;13829;48.990;8.346;2023-08-20T07:01:17;10.10;;;8.27;;
5054;SDS011;13829;48.990;8.346;2023-08-20T07:03:44;12.38;;;8.63;;
5054;SDS011;13829;48.990;8.346;2023-08-20T07:06:11;10.23;;;8.40;;
5054;SDS011;13829;48.990;8.346;2023-08-20T07:08:39;10.27;;;8.55;;
5054;SDS011;13829;48.990;8.346;2023-08-20T07:11:06;8.88;;;7.40;;
5054;SDS011;13829;48.990;8.346;2023-08-20T07:13:35;10.10;;;6.78;;
5054;SDS011;13829;48.990;8.346;2023-08-20T07:16:02;9.52;;;7.43;;
5054;SDS011;13829;48.990;8.346;2023-08-20T07:18:30;11.80;;;7.63;;
5054;SDS011;13829;48.990;8.346;2023-08-20T07:20:57;9.10;;;7.15;;
5054;SDS011;13829;48.990;8.346;2023-08-20T07:23:24;9.05;;;6.82;;
5054;SDS011;13829;48.990;8.346;2023-08-20T07:25:51;8.23;;;6.68;;
5054;SDS011;13829;48.990;8.346;2023-08-20T07:28:30;8.43;;;7.28;;
5054;SDS011;13829;48.990;8.346;2023-08-20T07:31:13;11.15;;;7.05;;
5054;SDS011;13829;48.990;8.346;2023-08-20T07:33:40;9.23;;;7.35;;
5054;SDS011;13829;48.990;8.346;2023-08-20T07:36:06;8.73;;;6.65;;
5054;SDS011;13829;48.990;8.346;2023-08-20T07:38:33;8.80;;;6.88;;
5054;SDS011;13829;48.990;8.346;2023-08-20T07:41:06;7.38;;;6.65;;
5054;SDS011;13829;48.990;8.346;2023-08-20T07:43:33;7.70;;;5.88;;
5054;SDS011;13829;48.990;8.346;2023-08-20T07:46:00;8.52;;;6.47;;
5054;SDS011;13829;48.990;8.346;2023-08-20T07:48:28;7.28;;;6.03;;
5054;SDS011;13829;48.990;8.346;2023-08-20T07:50:55;6.90;;;6.13;;
5054;SDS011;13829;48.990;8.346;2023-08-20T07:53:22;9.88;;;6.03;;
5054;SDS011;13829;48.990;8.346;2023-08-20T07:55:49;8.30;;;6.88;;
5054;SDS011;13829;48.990;8.346;2023-08-20T07:58:16;7.40;;;6.80;;
5054;SDS011;13829;48.990;8.346;2023-08-20T08:00:43;6.90;;;6.18;;
5054;SDS011;13829;48.990;8.346;2023-08-20T08:03:10;6.97;;;6.32;;
5054;SDS011;13829;48.990;8.346;2023-08-20T08:05:41;8.88;;;7.15;;
5054;SDS011;13829;48.990;8.346;2023-08-20T08:08:07;8.00;;;7.18;;
5054;SDS011;13829;48.990;8.346;2023-08-20T08:10:34;11.57;;;7.40;;
5054;SDS011;13829;48.990;8.346;2023-08-20T08:13:01;7.95;;;7.25;;
5054;SDS011;13829;48.990;8.346;2023-08-20T08:15:28;10.52;;;8.00;;
5054;SDS011;13829;48.990;8.346;2023-08-20T08:17:54;9.55;;;7.18;;
5054;SDS011;13829;48.990;8.346;2023-08-20T08:20:21;9.80;;;7.63;;
5054;SDS011;13829;48.990;8.346;2023-08-20T08:22:50;9.50;;;7.28;;
5054;SDS011;13829;48.990;8.346;2023-08-20T08:25:17;7.88;;;7.18;;
5054;SDS011;13829;48.990;8.346;2023-08-20T08:27:44;8.13;;;6.28;;
5054;SDS011;13829;48.990;8.346;2023-08-20T08:30:11;10.38;;;7.07;;
5054;SDS011;13829;48.990;8.346;2023-08-20T08:32:39;9.43;;;7.28;;
5054;SDS011;13829;48.990;8.346;2023-08-20T08:35:06;7.88;;;7.20;;
5054;SDS011;13829;48.990;8.346;2023-08-20T08:37:34;9.38;;;7.05;;
5054;SDS011;13829;48.990;8.346;2023-08-20T08:40:02;8.65;;;7.75;;
5054;SDS011;13829;48.990;8.346;2023-08-20T08:42:30;8.48;;;7.68;;
5054;SDS011;13829;48.990;8.346;2023-08-20T08:44:59;8.48;;;7.68;;
5054;SDS011;13829;48.990;8.346;2023-08-20T08:47:27;9.63;;;7.53;;
5054;SDS011;13829;48.990;8.346;2023-08-20T08:49:55;10.80;;;7.80;;
5054;SDS011;13829;48.990;8.346;2023-08-20T08:52:23;9.18;;;7.00;;
5054;SDS011;13829;48.990;8.346;2023-08-20T08:54:51;12.25;;;7.95;;
5054;SDS011;13829;48.990;8.346;2023-08-20T08:57:20;9.52;;;7.40;;
5054;SDS011;13829;48.990;8.346;2023-08-20T08:59:47;8.45;;;7.65;;
5054;SDS011;13829;48.990;8.346;2023-08-20T09:02:16;8.40;;;7.60;;
5054;SDS011;13829;48.990;8.346;2023-08-20T09:04:44;9.18;;;8.25;;
5054;SDS011;13829;48.990;8.346;2023-08-20T09:07:11;8.82;;;7.13;;
5054;SDS011;13829;48.990;8.346;2023-08-20T09:09:41;10.25;;;8.32;;
5054;SDS011;13829;48.990;8.346;2023-08-20T09:12:12;10.90;;;8.10;;
5054;SDS011;13829;48.990;8.346;2023-08-20T09:14:43;9.18;;;8.20;;
5054;SDS011;13829;48.990;8.346;2023-08-20T09:17:13;10.07;;;7.93;;
5054;SDS011;13829;48.990;8.346;2023-08-20T09:19:40;9.90;;;8.63;;
5054;SDS011;13829;48.990;8.346;2023-08-20T09:22:10;9.48;;;7.80;;
5054;SDS011;13829;48.990;8.346;2023-08-20T09:24:39;9.15;;;8.07;;
5054;SDS011;13829;48.990;8.346;2023-08-20T09:27:08;9.32;;;7.68;;
5054;SDS011;13829;48.990;8.346;2023-08-20T09:29:44;7.90;;;7.20;;
5054;SDS011;13829;48.990;8.346;2023-08-20T09:32:16;10.82;;;8.65;;
5054;SDS011;13829;48.990;8.346;2023-08-20T09:34:45;8.50;;;7.70;;
5054;SDS011;13829;48.990;8.346;2023-08-20T09:37:14;8.80;;;7.78;;
5054;SDS011;13829;48.990;8.346;2023-08-20T09:39:42;12.15;;;8.20;;
5054;SDS011;13829;48.990;8.346;2023-08-20T09:42:10;8.45;;;7.60;;
5054;SDS011;13829;48.990;8.346;2023-08-20T09:44:39;8.95;;;8.15;;
5054;SDS011;13829;48.990;8.346;2023-08-20T09:47:09;12.05;;;8.05;;
5054;SDS011;13829;48.990;8.346;2023-08-20T09:49:38;9.13;;;8.00;;
5054;SDS011;13829;48.990;8.346;2023-08-20T09:52:07;9.63;;;7.88;;
5054;SDS011;13829;48.990;8.346;2023-08-20T09:54:39;9.77;;;8.77;;
5054;SDS011;13829;48.990;8.346;2023-08-20T09:57:26;9.80;;;7.85;;
5054;SDS011;13829;48.990;8.346;2023-08-20T09:59:59;8.30;;;7.57;;
5054;SDS011;13829;48.990;8.346;2023-08-20T10:02:29;10.27;;;7.65;;
5054;SDS011;13829;48.990;8.346;2023-08-20T10:04:56;9.27;;;8.30;;
5054;SDS011;13829;48.990;8.346;2023-08-20T10:07:27;9.30;;;8.40;;
5054;SDS011;13829;48.990;8.346;2023-08-20T10:09:57;8.85;;;7.97;;
5054;SDS011;13829;48.990;8.346;2023-08-20T10:12:26;9.95;;;7.93;;
5054;SDS011;13829;48.990;8.346;2023-08-20T10:14:54;8.23;;;7.43;;
5054;SDS011;13829;48.990;8.346;2023-08-20T10:17:23;8.38;;;7.57;;
5054;SDS011;13829;48.990;8.346;2023-08-20T10:19:52;8.63;;;7.82;;
5054;SDS011;13829;48.990;8.346;2023-08-20T10:22:19;8.60;;;7.78;;
5054;SDS011;13829;48.990;8.346;2023-08-20T10:24:47;8.63;;;7.82;;
5054;SDS011;13829;48.990;8.346;2023-08-20T10:27:25;9.75;;;8.05;;
5054;SDS011;13829;48.990;8.346;2023-08-20T10:29:53;10.07;;;8.23;;
5054;SDS011;13829;48.990;8.346;2023-08-20T10:32:20;10.52;;;7.93;;
5054;SDS011;13829;48.990;8.346;2023-08-20T10:35:14;9.63;;;7.25;;
5054;SDS011;13829;48.990;8.346;2023-08-20T10:40:46;8.70;;;7.68;;
5054;SDS011;13829;48.990;8.346;2023-08-20T10:43:27;8.38;;;7.57;;
5054;SDS011;13829;48.990;8.346;2023-08-20T10:46:04;8.05;;;7.35;;
5054;SDS011;13829;48.990;8.346;2023-08-20T10:48:40;8.95;;;7.50;;
5054;SDS011;13829;48.990;8.346;2023-08-20T10:51:11;9.18;;;8.18;;
5054;SDS011;13829;48.990;8.346;2023-08-20T10:53:39;11.23;;;7.68;;
5054;SDS011;13829;48.990;8.346;2023-08-20T10:56:09;8.52;;;7.60;;
5054;SDS011;13829;48.990;8.346;2023-08-20T10:58:40;32.92;;;13.13;;
5054;SDS011;13829;48.990;8.346;2023-08-20T11:01:12;10.77;;;8.38;;
5054;SDS011;13829;48.990;8.346;2023-08-20T11:03:50;9.45;;;8.40;;
5054;SDS011;13829;48.990;8.346;2023-08-20T11:06:18;7.90;;;7.10;;
5054;SDS011;13829;48.990;8.346;2023-08-20T11:08:45;7.80;;;7.10;;
5054;SDS011;13829;48.990;8.346;2023-08-20T11:11:13;6.53;;;5.85;;
5054;SDS011;13829;48.990;8.346;2023-08-20T11:13:40;9.88;;;6.38;;
5054;SDS011;13829;48.990;8.346;2023-08-20T11:16:08;9.27;;;6.68;;
5054;SDS011;13829;48.990;8.346;2023-08-20T11:18:36;8.35;;;6.70;;
5054;SDS011;13829;48.990;8.346;2023-08-20T11:21:03;8.38;;;6.40;;
5054;SDS011;13829;48.990;8.346;2023-08-20T11:23:32;7.22;;;5.35;;
5054;SDS011;13829;48.990;8.346;2023-08-20T11:25:59;6.45;;;5.63;;
5054;SDS011;13829;48.990;8.346;2023-08-20T11:28:27;8.02;;;6.50;;
5054;SDS011;13829;48.990;8.346;2023-08-20T11:30:55;6.88;;;5.80;;
5054;SDS011;13829;48.990;8.346;2023-08-20T11:33:22;10.27;;;6.55;;
5054;SDS011;13829;48.990;8.346;2023-08-20T11:35:51;8.82;;;6.47;;
5054;SDS011;13829;48.990;8.346;2023-08-20T11:38:20;6.40;;;5.30;;
5054;SDS011;13829;48.990;8.346;2023-08-20T11:40:50;8.85;;;6.32;;
5054;SDS011;13829;48.990;8.346;2023-08-20T11:43:17;7.13;;;5.30;;
5054;SDS011;13829;48.990;8.346;2023-08-20T11:45:45;8.02;;;6.13;;
5054;SDS011;13829;48.990;8.346;2023-08-20T11:48:13;7.65;;;6.32;;
5054;SDS011;13829;48.990;8.346;2023-08-20T11:50:41;6.88;;;5.88;;
5054;SDS011;13829;48.990;8.346;2023-08-20T11:53:09;7.53;;;5.85;;
5054;SDS011;13829;48.990;8.346;2023-08-20T11:55:37;9.95;;;6.72;;
5054;SDS011;13829;48.990;8.346;2023-08-20T11:58:09;7.65;;;6.13;;
5054;SDS011;13829;48.990;8.346;2023-08-20T12:00:38;7.43;;;6.72;;
5054;SDS011;13829;48.990;8.346;2023-08-20T12:03:05;9.98;;;6.47;;
5054;SDS011;13829;48.990;8.346;2023-08-20T12:05:35;7.38;;;6.60;;
5054;SDS011;13829;48.990;8.346;2023-08-20T12:08:02;7.22;;;6.05;;
5054;SDS011;13829;48.990;8.346;2023-08-20T12:10:33;6.60;;;6.00;;
5054;SDS011;13829;48.990;8.346;2023-08-20T12:13:00;7.70;;;6.70;;
5054;SDS011;13829;48.990;8.346;2023-08-20T12:15:30;8.38;;;6.32;;
5054;SDS011;13829;48.990;8.346;2023-08-20T12:18:00;7.75;;;6.55;;
5054;SDS011;13829;48.990;8.346;2023-08-20T12:20:30;9.57;;;6.25;;
5054;SDS011;13829;48.990;8.346;2023-08-20T12:23:01;8.43;;;6.47;;
5054;SDS011;13829;48.990;8.346;2023-08-20T12:25:30;7.18;;;6.38;;
5054;SDS011;13829;48.990;8.346;2023-08-20T12:28:00;8.10;;;6.75;;
5054;SDS011;13829;48.990;8.346;2023-08-20T12:30:30;9.30;;;6.65;;
5054;SDS011;13829;48.990;8.346;2023-08-20T12:32:59;8.25;;;6.80;;
5054;SDS011;13829;48.990;8.346;2023-08-20T12:35:26;7.05;;;6.35;;
5054;SDS011;13829;48.990;8.346;2023-08-20T12:37:52;12.38;;;5.90;;
5054;SDS011;13829;48.990;8.346;2023-08-20T12:40:19;6.90;;;6.07;;
5054;SDS011;13829;48.990;8.346;2023-08-20T12:42:47;10.45;;;6.18;;
5054;SDS011;13829;48.990;8.346;2023-08-20T12:45:14;6.25;;;5.43;;
5054;SDS011;13829;48.990;8.346;2023-08-20T12:47:42;7.63;;;5.45;;
5054;SDS011;13829;48.990;8.346;2023-08-20T12:50:09;6.30;;;5.70;;
5054;SDS011;13829;48.990;8.346;2023-08-20T12:52:38;6.38;;;5.55;;
5054;SDS011;13829;48.990;8.346;2023-08-20T12:55:05;9.88;;;5.93;;
5054;SDS011;13829;48.990;8.346;2023-08-20T12:57:34;7.10;;;5.97;;
5054;SDS011;13829;48.990;8.346;2023-08-20T13:00:02;9.10;;;6.22;;
5054;SDS011;13829;48.990;8.346;2023-08-20T13:02:34;7.05;;;5.80;;
5054;SDS011;13829;48.990;8.346;2023-08-20T13:05:03;6.68;;;5.95;;
5054;SDS011;13829;48.990;8.346;2023-08-20T13:07:31;6.43;;;5.35;;
5054;SDS011;13829;48.990;8.346;2023-08-20T13:09:59;6.53;;;5.93;;
5054;SDS011;13829;48.990;8.346;2023-08-20T13:12:27;7.28;;;6.00;;
5054;SDS011;13829;48.990;8.346;2023-08-20T13:14:58;7.57;;;5.97;;
5054;SDS011;13829;48.990;8.346;2023-08-20T13:17:25;6.63;;;5.70;;
5054;SDS011;13829;48.990;8.346;2023-08-20T13:19:54;8.40;;;5.90;;
5054;SDS011;13829;48.990;8.346;2023-08-20T13:22:22;9.60;;;5.90;;
5054;SDS011;13829;48.990;8.346;2023-08-20T13:24:49;6.40;;;5.65;;
5054;SDS011;13829;48.990;8.346;2023-08-20T13:27:16;8.85;;;5.80;;
5054;SDS011;13829;48.990;8.346;2023-08-20T13:29:43;7.20;;;5.85;;
5054;SDS011;13829;48.990;8.346;2023-08-20T13:32:10;6.88;;;6.18;;
5054;SDS011;13829;48.990;8.346;2023-08-20T13:34:37;6.63;;;5.88;;
5054;SDS011;13829;48.990;8.346;2023-08-20T13:37:04;6.88;;;5.60;;
5054;SDS011;13829;48.990;8.346;2023-08-20T13:39:32;7.85;;;6.38;;
5054;SDS011;13829;48.990;8.346;2023-08-20T13:41:59;7.07;;;6.38;;
5054;SDS011;13829;48.990;8.346;2023-08-20T13:44:26;8.52;;;6.45;;
5054;SDS011;13829;48.990;8.346;2023-08-20T13:46:53;7.70;;;6.20;;
5054;SDS011;13829;48.990;8.346;2023-08-20T13:49:21;6.72;;;6.03;;
5054;SDS011;13829;48.990;8.346;2023-08-20T13:51:48;10.77;;;6.25;;
5054;SDS011;13829;48.990;8.346;2023-08-20T13:54:15;6.30;;;5.70;;
5054;SDS011;13829;48.990;8.346;2023-08-20T13:56:43;6.40;;;5.57;;
5054;SDS011;13829;48.990;8.346;2023-08-20T13:59:10;7.80;;;6.20;;
5054;SDS011;13829;48.990;8.346;2023-08-20T14:01:37;7.20;;;5.78;;
5054;SDS011;13829;48.990;8.346;2023-08-20T14:04:04;8.77;;;6.03;;
5054;SDS011;13829;48.990;8.346;2023-08-20T14:06:31;9.07;;;5.85;;
5054;SDS011;13829;48.990;8.346;2023-08-20T14:08:58;5.97;;;5.40;;
5054;SDS011;13829;48.990;8.346;2023-08-20T14:11:25;6.50;;;5.25;;
5054;SDS011;13829;48.990;8.346;2023-08-20T14:13:53;9.18;;;6.05;;
5054;SDS011;13829;48.990;8.346;2023-08-20T14:16:20;6.47;;;5.63;;
5054;SDS011;13829;48.990;8.346;2023-08-20T14:18:47;8.30;;;5.20;;
5054;SDS011;13829;48.990;8.346;2023-08-20T14:21:14;7.70;;;6.10;;
5054;SDS011;13829;48.990;8.346;2023-08-20T14:23:41;6.35;;;5.78;;
5054;SDS011;13829;48.990;8.346;2023-08-20T14:26:08;6.32;;;5.72;;
5054;SDS011;13829;48.990;8.346;2023-08-20T14:28:35;7.13;;;5.28;;
5054;SDS011;13829;48.990;8.346;2023-08-20T14:31:03;7.18;;;6.03;;
5054;SDS011;13829;48.990;8.346;2023-08-20T14:33:30;9.57;;;5.97;;
5054;SDS011;13829;48.990;8.346;2023-08-20T14:35:58;8.32;;;5.57;;
5054;SDS011;13829;48.990;8.346;2023-08-20T14:38:24;6.03;;;5.43;;
5054;SDS011;13829;48.990;8.346;2023-08-20T14:40:51;6.30;;;5.10;;
5054;SDS011;13829;48.990;8.346;2023-08-20T14:43:18;5.95;;;5.35;;
5054;SDS011;13829;48.990;8.346;2023-08-20T14:45:45;8.35;;;5.43;;
5054;SDS011;13829;48.990;8.346;2023-08-20T14:48:13;6.63;;;5.53;;
5054;SDS011;13829;48.990;8.346;2023-08-20T14:50:40;7.30;;;5.22;;
5054;SDS011;13829;48.990;8.346;2023-08-20T14:53:07;6.47;;;5.60;;
5054;SDS011;13829;48.990;8.346;2023-08-20T14:55:34;7.57;;;5.68;;
5054;SDS011;13829;48.990;8.346;2023-08-20T14:58:01;8.30;;;5.32;;